This demonstration page uses our WeatherBlox Daily Observations layout. Learn more.

36.17497, -115.13722

Hourly Observations for August 31, 2018

Temp ( °F °C ) Dew Point ( °F °C ) Humidity (%) Winds ( mph kmh ) Pressure ( in mb ) Visibility ( mi km ) Precip ( " mm )
12:53 am 00:53 Clear 86 30 25 -3.9 11 11 SSW 12 19 29.8 1009 10 16.0934 0 0
1:53 am 01:53 Clear 86 30 21 -6.1 9 9 SSW 12 19 29.79 1009 10 16.0934 0 0
2:53 am 02:53 Clear 85 29.4 21 -6.1 9 9 SW 8 13 29.79 1009 10 16.0934 0 0
3:53 am 03:53 Clear 83 28.3 21 -6.1 10 10 SW 8 13 29.79 1009 10 16.0934 0 0
4:53 am 04:53 Clear 79 26.1 24 -4.4 13 13 Calm 29.8 1009 10 16.0934 0 0
5:53 am 05:53 Clear 77 25 26 -3.3 15 15 ENE 5 7 29.8 1009 10 16.0934 0 0
6:53 am 06:53 Sunny 76 24.4 28 -2.2 17 17 N 5 7 29.83 1010 10 16.0934 0 0
7:53 am 07:53 Sunny 80 26.7 27 -2.8 14 14 NW 6 9 29.84 1011 10 16.0934 0 0
8:53 am 08:53 Sunny 83 28.3 29 -1.7 14 14 Calm 29.84 1011 10 16.0934 0 0
9:53 am 09:53 Sunny 88 31.1 26 -3.3 10 10 Calm 29.84 1010 10 16.0934 0 0
10:53 am 10:53 Sunny 92 33.3 25 -3.9 9 9 NNW 7 11 29.83 1010 10 16.0934 0 0
11:53 am 11:53 Sunny 94 34.4 23 -5 8 8 VRB 5 7 29.82 1010 10 16.0934 0 0
12:53 pm 12:53 Sunny 95 35 18 -7.8 6 6 SSW 8 13 29.79 1009 10 16.0934 0 0
1:53 pm 13:53 Sunny 97 36.1 13 -10.6 4 4 SSW 10 17 29.76 1008 10 16.0934 0 0
2:53 pm 14:53 Sunny 98 36.7 18 -7.8 5 5 S 8 13 29.72 1006 10 16.0934 0 0
3:53 pm 15:53 Sunny 99 37.2 16 -8.9 5 5 SSW 10 17 29.7 1006 10 16.0934 0 0
4:53 pm 16:53 Sunny 99 37.2 17 -8.3 5 5 SSW 9 15 29.68 1005 10 16.0934 0 0
5:23 pm 17:23 Sunny with Nearby Thunderstorms 99 37.2 20 -6.7 6 6 S 15 24 29.5 999 10 16.0934 0 0
5:33 pm 17:33 Sunny with Thunderstorms 99 37.2 20 -6.7 6 6 SW 6 9 29.5 999 10 16.0934 0 0
5:45 pm 17:45 Sunny 99 37.2 20 -6.7 6 6 WSW 13 20 29.5 999 10 16.0934 0 0
5:53 pm 17:53 Sunny 98 36.7 21 -6.1 6 6 SW 10 17 29.67 1005 10 16.0934 0 0
6:08 pm 18:08 Sunny with Nearby Thunderstorms 98 36.7 20 -6.7 6 6 SW 8 13 29.5 999 10 16.0934 0 0
6:39 pm 18:39 Sunny 97 36.1 18 -7.8 6 6 SW 9 15 29.5 999 10 16.0934 0 0
6:53 pm 18:53 Sunny 96 35.6 18 -7.8 6 6 SW 9 15 29.66 1004 10 16.0934 0 0
7:53 pm 19:53 Clear 92 33.3 20 -6.7 7 7 S 7 11 29.67 1005 10 16.0934 0 0
8:53 pm 20:53 Clear 90 32.2 22 -5.6 8 8 WNW 9 15 29.67 1005 10 16.0934 0 0
9:53 pm 21:53 Clear 87 30.6 21 -6.1 9 9 NNW 6 9 29.69 1005 10 16.0934 0 0
10:53 pm 22:53 Clear 85 29.4 23 -5 10 10 Calm 29.7 1006 10 16.0934 0 0
11:53 pm 23:53 Clear 83 28.3 25 -3.9 12 12 W 9 15 29.7 1006 10 16.0934 0 0

Powered by AerisWeather